CheckWX is a tool to help pilots better visualize weather data.  It is not intended as a substitute for an official pre-flight weather briefing.

22:34:42 UTC

KLGD METAR
La Grande / Union County Airport
La Grande, Oregon, USA
Current

39 mins ago

KLGD 202156Z AUTO VRB04G14KT 10SM CLR 26/01 A3006 RMK AO2 SLP312 T02560006
Observed
Jul-20 @ 21:56 UTC
Wind
  • Variable at 4 KTS
  • Gusting to 14 KTS
Visibility
10 SM
Flight Rules
VFR
Cloud Levels
  • Clear skies
Temperature
26°C / 79°F
Dewpoint
C / 34°F
Humidity
20%
Altimeter
30.06" Hg
Pressure
1017.92 hPa
Previous

2 hours ago

KLGD 202056Z AUTO 31010KT 10SM CLR 25/01 A3007 RMK AO2 SLP315 T02500006 58011
Observed
Jul-20 @ 20:56 UTC
Wind
  • 310° at 10 KTS
Visibility
10 SM
Flight Rules
VFR
Cloud Levels
  • Clear skies
Temperature
25°C / 77°F
Dewpoint
C / 34°F
Humidity
21%
Altimeter
30.07" Hg
Pressure
1018.32 hPa
Previous

3 hours ago

KLGD 201956Z AUTO 01010G14KT 10SM CLR 24/M01 A3008 RMK AO2 SLP319 T02441006
Observed
Jul-20 @ 19:56 UTC
Wind
  • 010° at 10 KTS
  • Gusting to 14 KTS
Visibility
10 SM
Flight Rules
VFR
Cloud Levels
  • Clear skies
Temperature
24°C / 75°F
Dewpoint
-1°C / 30°F
Humidity
19%
Altimeter
30.08" Hg
Pressure
1018.62 hPa